createdAt,value
2023-02-02T00:04:31.702Z,99653.16
2023-02-02T00:09:37.143Z,99653.16
2023-02-02T00:14:42.797Z,99601.19
2023-02-02T00:19:49.116Z,99601.19
2023-02-02T00:24:54.559Z,99590.80
2023-02-02T00:30:00.014Z,99590.80
2023-02-02T00:35:05.537Z,99562.12
2023-02-02T00:40:12.500Z,99560.48
2023-02-02T00:45:18.578Z,99562.90
2023-02-02T00:50:24.030Z,99547.28
2023-02-02T00:55:29.853Z,99539.69
2023-02-02T01:00:35.230Z,99539.55
2023-02-02T01:05:41.051Z,99556.31
2023-02-02T01:10:46.577Z,99601.98
2023-02-02T01:15:57.655Z,99583.81
2023-02-02T01:21:07.152Z,99595.16
2023-02-02T01:26:14.424Z,99625.89
2023-02-02T01:31:21.705Z,99597.80
2023-02-02T01:36:27.227Z,99589.86
2023-02-02T01:41:33.133Z,99600.38
2023-02-02T01:46:39.333Z,99625.73
2023-02-02T01:51:51.496Z,99625.73
2023-02-02T01:56:59.926Z,99632.97
2023-02-02T02:02:05.651Z,99653.22
2023-02-02T02:07:12.904Z,99666.53
2023-02-02T02:12:18.591Z,99703.61
2023-02-02T02:17:27.354Z,99713.95
2023-02-02T02:23:13.447Z,99704.91
2023-02-02T02:28:42.950Z,99726.88
2023-02-02T02:33:54.435Z,99746.89
2023-02-02T02:39:31.993Z,99804.99
2023-02-02T02:44:38.193Z,99824.27
2023-02-02T02:49:45.987Z,99785.03
2023-02-02T02:54:54.786Z,99776.23
2023-02-02T03:00:18.433Z,99805.09
2023-02-02T03:05:29.491Z,99805.09
2023-02-02T03:10:36.770Z,99826.59
2023-02-02T03:15:46.827Z,99842.30
2023-02-02T03:20:52.217Z,99837.24
2023-02-02T03:25:57.848Z,99884.48
2023-02-02T03:31:04.001Z,99895.54
2023-02-02T03:36:10.356Z,99917.17
2023-02-02T03:41:15.751Z,99917.17
2023-02-02T03:46:21.329Z,99947.94
2023-02-02T03:51:26.826Z,99947.94
2023-02-02T03:56:32.269Z,99993.41
2023-02-02T04:01:37.754Z,99984.14
2023-02-02T04:06:43.250Z,99989.77
2023-02-02T04:11:48.799Z,100014.81
2023-02-02T04:16:54.414Z,100051.55
2023-02-02T04:21:59.808Z,100051.55
2023-02-02T04:27:05.422Z,100054.13
2023-02-02T04:32:10.975Z,100071.06
2023-02-02T04:37:16.509Z,100147.23
2023-02-02T04:42:22.133Z,100119.31
2023-02-02T04:47:27.847Z,100127.59
2023-02-02T04:52:33.697Z,100139.88
2023-02-02T04:57:39.237Z,100154.03
2023-02-02T05:02:45.203Z,100233.12
2023-02-02T05:07:50.647Z,100233.12
2023-02-02T05:12:56.940Z,100202.56
2023-02-02T05:18:02.535Z,100232.98
2023-02-02T05:23:08.044Z,100237.17
2023-02-02T05:28:15.979Z,100248.70
2023-02-02T05:33:21.465Z,100269.52
2023-02-02T05:38:26.923Z,100291.94
2023-02-02T05:43:34.456Z,100285.64
2023-02-02T05:48:39.822Z,100299.67
2023-02-02T05:53:45.986Z,100312.44
2023-02-02T05:58:51.434Z,100323.08
2023-02-02T06:03:56.968Z,100345.34
2023-02-02T06:09:03.188Z,100356.14
2023-02-02T06:14:08.889Z,100353.49
2023-02-02T06:19:14.281Z,100365.28
2023-02-02T06:24:19.917Z,100381.61
2023-02-02T06:29:25.697Z,100386.80
2023-02-02T06:34:31.161Z,100396.57
2023-02-02T06:39:36.788Z,100414.46
2023-02-02T06:44:42.170Z,100426.13
2023-02-02T06:49:47.621Z,100437.41
2023-02-02T06:54:53.143Z,100453.78
2023-02-02T06:59:58.721Z,100466.95
2023-02-02T07:05:04.237Z,100468.13
2023-02-02T07:10:10.487Z,100480.22
2023-02-02T07:15:18.138Z,100485.21
2023-02-02T07:20:23.666Z,100489.94
2023-02-02T07:25:29.131Z,100503.58
2023-02-02T07:30:34.692Z,100512.15
2023-02-02T07:35:40.299Z,100521.86
2023-02-02T07:40:46.598Z,100524.81
2023-02-02T07:45:51.962Z,100530.15
2023-02-02T07:51:06.181Z,100547.19
2023-02-02T07:56:17.320Z,100561.05
2023-02-02T08:01:26.571Z,100572.72
2023-02-02T08:06:35.412Z,100586.07
2023-02-02T08:11:41.003Z,100598.02
2023-02-02T08:16:46.378Z,100610.41
2023-02-02T08:21:51.791Z,100603.63
2023-02-02T08:26:57.304Z,100624.87
2023-02-02T08:32:03.047Z,100626.38
2023-02-02T08:37:08.557Z,100642.14
2023-02-02T08:42:14.237Z,100646.58
2023-02-02T08:47:19.680Z,100670.61
2023-02-02T08:52:25.922Z,100666.55
2023-02-02T08:57:32.875Z,100680.23
2023-02-02T09:02:38.337Z,100666.69
2023-02-02T09:07:44.134Z,100683.54
2023-02-02T09:12:49.584Z,100700.58
2023-02-02T09:17:55.036Z,100699.91
2023-02-02T09:23:00.443Z,100743.66
2023-02-02T09:28:06.854Z,100743.66
2023-02-02T09:33:12.306Z,100716.18
2023-02-02T09:38:17.701Z,100730.44
2023-02-02T09:43:32.071Z,100730.26
2023-02-02T09:48:48.988Z,100751.08
2023-02-02T09:53:58.203Z,100755.61
2023-02-02T09:59:19.233Z,100766.39
2023-02-02T10:04:33.654Z,100771.61
2023-02-02T10:09:46.852Z,100799.50
2023-02-02T10:14:59.231Z,100799.50
2023-02-02T10:20:24.625Z,100818.25
2023-02-02T10:25:30.963Z,100818.25
2023-02-02T10:30:39.539Z,100851.18
2023-02-02T10:35:48.040Z,100851.18
2023-02-02T10:41:02.282Z,100868.03
2023-02-02T10:46:09.713Z,100871.52
2023-02-02T10:51:24.400Z,100881.52
2023-02-02T10:56:38.822Z,100876.55
2023-02-02T11:01:44.387Z,100884.91
2023-02-02T11:06:49.976Z,100897.34
2023-02-02T11:12:07.508Z,100897.34
2023-02-02T11:17:24.500Z,100917.73
2023-02-02T11:22:37.048Z,100928.52
2023-02-02T11:27:45.062Z,100945.78
2023-02-02T11:32:51.010Z,100939.44
2023-02-02T11:38:08.417Z,100949.52
2023-02-02T11:43:25.548Z,100944.34
2023-02-02T11:48:34.255Z,100958.37
2023-02-02T11:53:42.676Z,100943.29
2023-02-02T11:58:50.285Z,100964.56
2023-02-02T12:03:58.977Z,100964.56
2023-02-02T12:09:16.051Z,100968.84
2023-02-02T12:14:45.427Z,100977.38
2023-02-02T12:20:12.106Z,100993.92
2023-02-02T12:25:20.636Z,101008.22
2023-02-02T12:30:29.074Z,100989.69
2023-02-02T12:35:57.179Z,101028.89
2023-02-02T12:41:11.614Z,101025.11
2023-02-02T12:46:32.127Z,101025.11
2023-02-02T12:52:12.709Z,101040.02
2023-02-02T12:57:27.059Z,101054.47
2023-02-02T13:02:58.361Z,101051.55
2023-02-02T13:08:06.813Z,101070.73
2023-02-02T13:13:27.486Z,101085.58
2023-02-02T13:18:39.799Z,101087.58
2023-02-02T13:23:54.220Z,101097.06
2023-02-02T13:29:17.752Z,101132.78
2023-02-02T13:34:32.071Z,101127.22
2023-02-02T13:39:52.444Z,101124.23
2023-02-02T13:45:00.911Z,101142.47
2023-02-02T13:50:11.358Z,101156.89
2023-02-02T13:55:29.046Z,101161.66
2023-02-02T14:00:44.863Z,101180.23
2023-02-02T14:06:08.726Z,101181.34
2023-02-02T14:11:23.290Z,101186.88
2023-02-02T14:16:34.809Z,101181.34
2023-02-02T14:21:43.270Z,101203.84
2023-02-02T14:26:57.210Z,101213.20
2023-02-02T14:32:21.911Z,101222.79
2023-02-02T14:37:30.379Z,101231.98
2023-02-02T14:43:13.056Z,101247.50
2023-02-02T14:48:26.914Z,101247.50
2023-02-02T14:53:38.607Z,101267.77
2023-02-02T14:58:56.383Z,101285.33
2023-02-02T15:04:23.482Z,101300.72
2023-02-02T15:09:32.893Z,101293.12
2023-02-02T15:14:41.420Z,101313.44
2023-02-02T15:19:49.654Z,101324.62
2023-02-02T15:24:57.759Z,101347.30
2023-02-02T15:30:09.261Z,101349.38
2023-02-02T15:35:20.622Z,101365.52
2023-02-02T15:40:28.829Z,101373.91
2023-02-02T15:45:38.917Z,101391.07
2023-02-02T15:50:48.542Z,101399.71
2023-02-02T15:55:55.877Z,101401.38
2023-02-02T16:01:04.365Z,101417.64
2023-02-02T16:06:10.657Z,101431.36
2023-02-02T16:11:23.664Z,101438.79
2023-02-02T16:16:38.171Z,101453.34
2023-02-02T16:21:49.505Z,101464.94
2023-02-02T16:26:57.681Z,101469.42
2023-02-02T16:32:04.543Z,101478.23
2023-02-02T16:37:32.493Z,101481.27
2023-02-02T16:42:38.596Z,101490.49
2023-02-02T16:47:44.154Z,101499.39
2023-02-02T16:52:55.761Z,101507.74
2023-02-02T16:58:02.406Z,101506.33
2023-02-02T17:03:11.143Z,101517.05
2023-02-02T17:08:18.229Z,101518.50
2023-02-02T17:13:36.653Z,101530.55
2023-02-02T17:18:42.306Z,101531.96
2023-02-02T17:23:51.066Z,101535.61
2023-02-02T17:28:57.683Z,101543.66
2023-02-02T17:34:04.294Z,101549.15
2023-02-02T17:39:11.674Z,101559.34
2023-02-02T17:44:17.257Z,101573.02
2023-02-02T17:49:22.659Z,101577.47
2023-02-02T17:54:28.060Z,101588.12
2023-02-02T17:59:33.553Z,101587.74
2023-02-02T18:04:39.093Z,101578.96
2023-02-02T18:09:44.569Z,101590.88
2023-02-02T18:14:50.033Z,101593.52
2023-02-02T18:19:56.176Z,101599.30
2023-02-02T18:25:01.787Z,101608.56
2023-02-02T18:30:08.112Z,101603.75
2023-02-02T18:35:14.252Z,101614.39
2023-02-02T18:40:20.185Z,101615.77
2023-02-02T18:45:26.372Z,101627.70
2023-02-02T18:50:32.041Z,101623.77
2023-02-02T18:55:39.038Z,101620.27
2023-02-02T19:00:46.811Z,101614.55
2023-02-02T19:06:10.275Z,101618.08
2023-02-02T19:11:24.362Z,101611.95
2023-02-02T19:16:32.578Z,101628.22
2023-02-02T19:21:38.124Z,101623.38
2023-02-02T19:26:49.507Z,101627.39
2023-02-02T19:32:00.773Z,101635.73
2023-02-02T19:37:27.066Z,101644.53
2023-02-02T19:42:32.591Z,101643.65
2023-02-02T19:47:39.610Z,101643.20
2023-02-02T19:52:46.421Z,101643.66
2023-02-02T19:57:54.353Z,101647.63
2023-02-02T20:03:07.999Z,101643.67
2023-02-02T20:08:34.677Z,101644.55
2023-02-02T20:13:48.725Z,101637.95
2023-02-02T20:18:59.607Z,101640.14
2023-02-02T20:24:07.211Z,101642.36
2023-02-02T20:29:28.254Z,101638.40
2023-02-02T20:34:36.549Z,101634.86
2023-02-02T20:39:47.821Z,101634.86
2023-02-02T20:44:54.221Z,101637.10
2023-02-02T20:50:01.250Z,101641.48
2023-02-02T20:55:07.771Z,101645.55
2023-02-02T21:00:16.200Z,101657.00
2023-02-02T21:05:22.499Z,101649.57
2023-02-02T21:10:29.000Z,101648.68
2023-02-02T21:15:34.767Z,101636.83
2023-02-02T21:20:40.255Z,101638.14
2023-02-02T21:25:45.738Z,101634.70
2023-02-02T21:30:51.374Z,101630.33
2023-02-02T21:35:59.282Z,101633.39
2023-02-02T21:41:07.726Z,101628.61
2023-02-02T21:46:21.257Z,101627.70
2023-02-02T21:51:35.431Z,101634.26
2023-02-02T21:56:41.057Z,101632.94
2023-02-02T22:01:48.318Z,101631.58
2023-02-02T22:06:59.388Z,101618.83
2023-02-02T22:12:07.980Z,101614.44
2023-02-02T22:17:25.364Z,101610.92
2023-02-02T22:22:35.749Z,101603.84
2023-02-02T22:27:52.587Z,101605.64
2023-02-02T22:32:57.992Z,101606.96
2023-02-02T22:38:04.512Z,101593.80
2023-02-02T22:43:09.991Z,101590.67
2023-02-02T22:48:17.123Z,101590.63
2023-02-02T22:53:25.813Z,101589.33
2023-02-02T22:58:31.359Z,101592.39
2023-02-02T23:03:36.885Z,101577.89
2023-02-02T23:08:42.661Z,101569.05
2023-02-02T23:13:48.199Z,101569.97
2023-02-02T23:18:53.657Z,101563.29
2023-02-02T23:23:59.102Z,101565.45
2023-02-02T23:29:04.626Z,101559.25
2023-02-02T23:34:10.095Z,101562.31
2023-02-02T23:39:15.572Z,101554.80
2023-02-02T23:44:21.099Z,101558.75
2023-02-02T23:49:26.709Z,101559.52
2023-02-02T23:54:33.129Z,101550.81
2023-02-02T23:59:38.695Z,101547.67
